This is the latest recevied weather packets stored in our database for station/object OSTR-WX. If no packets are shown the sender has not sent any weather packets the latest 10 day(s).
| Time | Temp. | Humidity | Pressure | Rain* | Wind** | Luminosity | Snow |
|---|---|---|---|---|---|---|---|
| 1777159204 | 13.89° C | 46% | 1009.7 hPa | - | - | - | - |
| 1777158254 | 13.33° C | 45% | 1009.6 hPa | - | - | - | - |
| 1777158247 | 13.33° C | 45% | 1009.6 hPa | - | - | - | - |
| 1777157291 | 13.33° C | 45% | 1009.7 hPa | - | - | - | - |
| 1777156333 | 13.89° C | 45% | 1009.7 hPa | - | - | - | - |
| 1777155376 | 13.89° C | 46% | 1009.8 hPa | - | - | - | - |
| 1777154419 | 13.89° C | 46% | 1009.8 hPa | - | - | - | - |
| 1777153469 | 13.89° C | 47% | 1009.8 hPa | - | - | - | - |
| 1777153462 | 13.89° C | 47% | 1009.8 hPa | - | - | - | - |
| 1777152506 | 13.89° C | 47% | 1009.7 hPa | - | - | - | - |
| 1777151556 | 14.44° C | 46% | 1009.8 hPa | - | - | - | - |
| 1777151549 | 14.44° C | 46% | 1009.8 hPa | - | - | - | - |
| 1777150591 | 13.89° C | 47% | 1009.8 hPa | - | - | - | - |
| 1777149641 | 13.89° C | 49% | 1009.8 hPa | - | - | - | - |
| 1777149635 | 13.89° C | 49% | 1009.8 hPa | - | - | - | - |
| 1777148684 | 13.33° C | 52% | 1009.9 hPa | - | - | - | - |
| 1777148678 | 13.33° C | 52% | 1009.9 hPa | - | - | - | - |
| 1777147721 | 12.78° C | 53% | 1009.9 hPa | - | - | - | - |
| 1777146763 | 13.33° C | 51% | 1010 hPa | - | - | - | - |
| 1777145806 | 13.33° C | 51% | 1010 hPa | - | - | - | - |
| 1777144850 | 13.89° C | 48% | 1010.1 hPa | - | - | - | - |
| 1777143892 | 14.44° C | 45% | 1010.1 hPa | - | - | - | - |
| 1777142937 | 15° C | 45% | 1010.1 hPa | - | - | - | - |
| 1777141978 | 15° C | 46% | 1010 hPa | - | - | - | - |
| 1777141021 | 15.56° C | 47% | 1010 hPa | - | - | - | - |
* Rain since midnight (hover to see other rain measurements)
** Current wind speed in m/s (hover to see current wind gust speed)